createdAt,value
2023-09-09T00:01:31.859Z,100057.19
2023-09-09T00:03:59.653Z,100058.88
2023-09-09T00:06:26.488Z,100053.75
2023-09-09T00:08:52.993Z,100059.81
2023-09-09T00:11:19.493Z,100061.22
2023-09-09T00:13:47.036Z,100058.75
2023-09-09T00:16:13.988Z,100057.91
2023-09-09T00:18:40.584Z,100049.59
2023-09-09T00:21:07.106Z,100043.78
2023-09-09T00:23:33.549Z,100053.16
2023-09-09T00:26:00.135Z,100055.69
2023-09-09T00:28:26.588Z,100051.91
2023-09-09T00:30:53.133Z,100060.56
2023-09-09T00:33:19.654Z,100057.84
2023-09-09T00:35:46.143Z,100045.38
2023-09-09T00:38:14.034Z,100060.56
2023-09-09T00:41:04.523Z,100053.09
2023-09-09T00:43:31.012Z,100054.75
2023-09-09T00:45:57.825Z,100054.19
2023-09-09T00:48:24.591Z,100052.69
2023-09-09T00:50:51.133Z,100048.50
2023-09-09T00:53:17.606Z,100052.53
2023-09-09T00:55:44.827Z,100049.44
2023-09-09T00:58:11.833Z,100055.53
2023-09-09T01:00:39.581Z,100057.31
2023-09-09T01:03:10.827Z,100052.47
2023-09-09T01:05:39.574Z,100056.63
2023-09-09T01:08:06.426Z,100055.22
2023-09-09T01:10:33.366Z,100048.56
2023-09-09T01:12:59.964Z,100045.22
2023-09-09T01:15:27.385Z,100054.50
2023-09-09T01:17:54.313Z,100047.63
2023-09-09T01:20:21.496Z,100038.31
2023-09-09T01:22:51.389Z,100045.81
2023-09-09T01:25:18.026Z,100032.66
2023-09-09T01:27:44.532Z,100036.91
2023-09-09T01:30:12.479Z,100045.22
2023-09-09T01:32:39.147Z,100038.59
2023-09-09T01:35:06.377Z,100041.09
2023-09-09T01:37:33.472Z,100034.44
2023-09-09T01:40:08.818Z,100042.16
2023-09-09T01:42:35.318Z,100040.53
2023-09-09T01:45:01.854Z,100047.28
2023-09-09T01:47:28.384Z,100037.06
2023-09-09T01:49:54.892Z,100037.91
2023-09-09T01:52:21.445Z,100039.44
2023-09-09T01:54:47.983Z,100042.75
2023-09-09T01:57:17.514Z,100036.91
2023-09-09T01:59:44.397Z,100043.97
2023-09-09T02:02:10.897Z,100030.50
2023-09-09T02:04:37.476Z,100034.69
2023-09-09T02:07:04.190Z,100046.97
2023-09-09T02:09:30.985Z,100040.97
2023-09-09T02:11:57.466Z,100048.13
2023-09-09T02:14:24.481Z,100044.78
2023-09-09T02:16:51.044Z,100036.50
2023-09-09T02:19:17.552Z,100039.81
2023-09-09T02:21:44.028Z,100045.44
2023-09-09T02:24:10.567Z,100036.03
2023-09-09T02:26:37.045Z,100038.91
2023-09-09T02:29:03.535Z,100033.66
2023-09-09T02:31:30.103Z,100037.94
2023-09-09T02:33:56.751Z,100031.16
2023-09-09T02:36:23.250Z,100027.72
2023-09-09T02:38:49.750Z,100037.94
2023-09-09T02:41:16.305Z,100027.84
2023-09-09T02:43:42.997Z,100035.56
2023-09-09T02:46:09.598Z,100032.25
2023-09-09T02:48:36.291Z,100028.81
2023-09-09T02:51:03.360Z,100040.94
2023-09-09T02:53:31.213Z,100033.94
2023-09-09T02:55:57.816Z,100028.50
2023-09-09T02:58:24.343Z,100040.09
2023-09-09T03:00:50.877Z,100028.22
2023-09-09T03:03:17.592Z,100034.28
2023-09-09T03:05:44.455Z,100027.66
2023-09-09T03:08:10.997Z,100030.97
2023-09-09T03:10:38.370Z,100016.16
2023-09-09T03:13:04.897Z,100026.34
2023-09-09T03:15:31.433Z,100027.44
2023-09-09T03:17:58.043Z,100025.63
2023-09-09T03:20:25.721Z,100011.97
2023-09-09T03:22:53.018Z,100007.84
2023-09-09T03:25:19.799Z,100011.28
2023-09-09T03:27:46.347Z,100015.53
2023-09-09T03:30:13.310Z,100018.03
2023-09-09T03:32:39.855Z,100013.06
2023-09-09T03:35:07.060Z,100002.03
2023-09-09T03:37:33.549Z,100008.19
2023-09-09T03:40:00.094Z,100009.63
2023-09-09T03:42:26.701Z,100007.25
2023-09-09T03:44:55.483Z,100007.00
2023-09-09T03:47:22.647Z,100018.28
2023-09-09T03:49:51.617Z,100003.81
2023-09-09T03:52:18.109Z,100007.38
2023-09-09T03:54:44.617Z,100010.09
2023-09-09T03:57:11.103Z,100008.47
2023-09-09T03:59:37.605Z,100016.03
2023-09-09T04:02:04.249Z,100019.50
2023-09-09T04:04:30.902Z,100016.88
2023-09-09T04:06:57.509Z,100010.47
2023-09-09T04:09:27.562Z,100014.63
2023-09-09T04:11:54.446Z,100015.47
2023-09-09T04:14:20.995Z,100023.16
2023-09-09T04:16:47.592Z,100027.34
2023-09-09T04:19:14.337Z,100027.56
2023-09-09T04:21:40.857Z,100022.34
2023-09-09T04:24:07.468Z,100017.34
2023-09-09T04:26:33.970Z,100029.47
2023-09-09T04:29:01.311Z,100023.88
2023-09-09T04:31:27.869Z,100024.94
2023-09-09T04:33:54.488Z,100019.84
2023-09-09T04:36:21.057Z,100034.34
2023-09-09T04:38:47.554Z,100025.94
2023-09-09T04:41:14.105Z,100025.78
2023-09-09T04:43:40.822Z,100042.09
2023-09-09T04:46:07.564Z,100029.22
2023-09-09T04:48:34.632Z,100037.53
2023-09-09T04:51:01.208Z,100024.38
2023-09-09T04:53:28.650Z,100032.78
2023-09-09T04:55:55.496Z,100041.47
2023-09-09T04:58:22.062Z,100053.47
2023-09-09T05:00:48.562Z,100036.38
2023-09-09T05:03:15.136Z,100050.16
2023-09-09T05:05:41.656Z,100042.31
2023-09-09T05:08:08.109Z,100040.41
2023-09-09T05:10:35.531Z,100047.16
2023-09-09T05:13:02.346Z,100048.84
2023-09-09T05:15:28.885Z,100042.41
2023-09-09T05:17:55.355Z,100049.78
2023-09-09T05:20:22.528Z,100044.41
2023-09-09T05:22:49.063Z,100061.72
2023-09-09T05:25:15.719Z,100053.44
2023-09-09T05:27:42.768Z,100060.16
2023-09-09T05:30:09.320Z,100057.41
2023-09-09T05:32:36.474Z,100061.22
2023-09-09T05:35:03.671Z,100053.09
2023-09-09T05:37:31.917Z,100062.88
2023-09-09T05:40:00.666Z,100053.53
2023-09-09T05:42:28.206Z,100056.88
2023-09-09T05:44:54.731Z,100053.75
2023-09-09T05:47:21.377Z,100054.66
2023-09-09T05:49:48.969Z,100055.09
2023-09-09T05:52:15.479Z,100054.34
2023-09-09T05:54:42.989Z,100055.22
2023-09-09T05:57:09.957Z,100064.81
2023-09-09T05:59:36.633Z,100051.19
2023-09-09T06:02:03.221Z,100063.38
2023-09-09T06:04:29.793Z,100065.38
2023-09-09T06:06:57.569Z,100060.44
2023-09-09T06:09:24.102Z,100065.47
2023-09-09T06:11:51.669Z,100062.19
2023-09-09T06:14:18.199Z,100067.34
2023-09-09T06:16:44.742Z,100064.88
2023-09-09T06:19:11.357Z,100060.06
2023-09-09T06:21:38.769Z,100061.59
2023-09-09T06:24:05.600Z,100054.84
2023-09-09T06:26:34.919Z,100058.16
2023-09-09T06:29:02.302Z,100070.38
2023-09-09T06:31:29.295Z,100053.53
2023-09-09T06:33:55.910Z,100065.41
2023-09-09T06:36:23.163Z,100063.22
2023-09-09T06:38:50.787Z,100064.47
2023-09-09T06:41:17.456Z,100067.06
2023-09-09T06:43:44.508Z,100068.06
2023-09-09T06:46:11.078Z,100073.44
2023-09-09T06:48:37.820Z,100077.44
2023-09-09T06:51:04.366Z,100079.91
2023-09-09T06:53:30.945Z,100083.66
2023-09-09T06:55:57.417Z,100082.78
2023-09-09T06:58:23.952Z,100080.03
2023-09-09T07:00:54.054Z,100090.75
2023-09-09T07:03:21.575Z,100079.28
2023-09-09T07:05:48.759Z,100091.84
2023-09-09T07:08:15.633Z,100079.50
2023-09-09T07:10:52.465Z,100100.06
2023-09-09T07:13:20.126Z,100098.97
2023-09-09T07:15:46.660Z,100089.50
2023-09-09T07:18:13.282Z,100092.25
2023-09-09T07:20:40.216Z,100089.88
2023-09-09T07:23:06.840Z,100096.44
2023-09-09T07:25:34.760Z,100091.88
2023-09-09T07:28:01.459Z,100101.38
2023-09-09T07:30:28.016Z,100099.66
2023-09-09T07:32:54.565Z,100102.66
2023-09-09T07:35:21.100Z,100098.72
2023-09-09T07:37:48.696Z,100101.16
2023-09-09T07:40:17.651Z,100090.31
2023-09-09T07:42:44.167Z,100095.94
2023-09-09T07:45:11.030Z,100097.78
2023-09-09T07:47:37.509Z,100097.13
2023-09-09T07:50:04.455Z,100098.16
2023-09-09T07:52:30.957Z,100097.13
2023-09-09T07:54:58.924Z,100096.50
2023-09-09T07:57:25.357Z,100093.41
2023-09-09T07:59:51.838Z,100105.81
2023-09-09T08:02:18.279Z,100102.88
2023-09-09T08:04:45.013Z,100106.03
2023-09-09T08:07:11.609Z,100096.00
2023-09-09T08:09:38.116Z,100101.81
2023-09-09T08:12:04.980Z,100105.03
2023-09-09T08:14:31.529Z,100109.66
2023-09-09T08:16:58.136Z,100103.94
2023-09-09T08:19:24.675Z,100101.81
2023-09-09T08:21:51.358Z,100096.22
2023-09-09T08:24:17.793Z,100101.03
2023-09-09T08:26:44.343Z,100103.03
2023-09-09T08:29:11.046Z,100104.19
2023-09-09T08:31:37.697Z,100097.97
2023-09-09T08:34:04.319Z,100100.47
2023-09-09T08:36:30.821Z,100102.63
2023-09-09T08:38:58.502Z,100099.34
2023-09-09T08:41:37.247Z,100094.59
2023-09-09T08:44:33.229Z,100098.72
2023-09-09T08:46:59.782Z,100103.03
2023-09-09T08:49:28.706Z,100092.03
2023-09-09T08:52:02.529Z,100089.09
2023-09-09T08:54:29.399Z,100091.25
2023-09-09T08:56:57.181Z,100102.81
2023-09-09T08:59:25.588Z,100083.16
2023-09-09T09:01:53.158Z,100085.66
2023-09-09T09:04:20.481Z,100096.22
2023-09-09T09:06:50.133Z,100091.13
2023-09-09T09:09:17.887Z,100091.28
2023-09-09T09:11:45.459Z,100082.03
2023-09-09T09:14:12.009Z,100092.47
2023-09-09T09:16:41.199Z,100088.84
2023-09-09T09:19:17.747Z,100093.31
2023-09-09T09:21:44.869Z,100080.94
2023-09-09T09:24:11.492Z,100085.56
2023-09-09T09:26:38.599Z,100079.78
2023-09-09T09:29:08.093Z,100078.28
2023-09-09T09:31:34.685Z,100080.94
2023-09-09T09:34:01.226Z,100067.38
2023-09-09T09:36:28.489Z,100072.66
2023-09-09T09:38:56.116Z,100071.81
2023-09-09T09:41:23.545Z,100074.63
2023-09-09T09:43:51.603Z,100082.69
2023-09-09T09:46:20.404Z,100074.56
2023-09-09T09:48:47.595Z,100074.56
2023-09-09T09:51:14.455Z,100071.59
2023-09-09T09:53:50.010Z,100077.50
2023-09-09T09:56:17.278Z,100080.31
2023-09-09T09:58:49.288Z,100077.66
2023-09-09T10:01:16.462Z,100079.44
2023-09-09T10:03:52.532Z,100076.44
2023-09-09T10:06:26.897Z,100063.06
2023-09-09T10:09:11.508Z,100076.25
2023-09-09T10:11:45.887Z,100064.31
2023-09-09T10:14:15.525Z,100070.75
2023-09-09T10:16:45.512Z,100075.34
2023-09-09T10:19:13.588Z,100073.00
2023-09-09T10:21:42.821Z,100073.34
2023-09-09T10:24:10.782Z,100063.88
2023-09-09T10:26:39.009Z,100075.88
2023-09-09T10:29:06.967Z,100052.09
2023-09-09T10:31:36.126Z,100064.63
2023-09-09T10:34:04.147Z,100051.69
2023-09-09T10:36:40.698Z,100062.22
2023-09-09T10:39:16.762Z,100043.31
2023-09-09T10:41:44.026Z,100053.69
2023-09-09T10:44:10.613Z,100045.50
2023-09-09T10:46:41.118Z,100051.72
2023-09-09T10:49:07.927Z,100040.75
2023-09-09T10:51:51.998Z,100049.50
2023-09-09T10:54:19.971Z,100047.66
2023-09-09T10:56:51.783Z,100044.03
2023-09-09T10:59:25.830Z,100037.06
2023-09-09T11:02:09.313Z,100044.59
2023-09-09T11:04:42.381Z,100039.22
2023-09-09T11:07:11.106Z,100041.13
2023-09-09T11:09:38.566Z,100038.13
2023-09-09T11:12:12.954Z,100037.31
2023-09-09T11:14:45.448Z,100033.66
2023-09-09T11:17:12.677Z,100031.63
2023-09-09T11:19:41.130Z,100030.06
2023-09-09T11:22:09.704Z,100024.84
2023-09-09T11:24:36.288Z,100027.31
2023-09-09T11:27:03.541Z,100027.22
2023-09-09T11:29:36.886Z,100027.06
2023-09-09T11:32:08.644Z,100013.06
2023-09-09T11:34:35.371Z,100011.84
2023-09-09T11:37:03.926Z,100022.06
2023-09-09T11:39:30.736Z,100017.00
2023-09-09T11:41:57.223Z,100015.81
2023-09-09T11:44:23.934Z,100015.06
2023-09-09T11:46:50.984Z,100014.34
2023-09-09T11:49:18.274Z,100013.69
2023-09-09T11:51:45.939Z,100017.00
2023-09-09T11:54:18.856Z,100014.88
2023-09-09T11:56:45.390Z,100007.91
2023-09-09T11:59:11.986Z,100000.94
2023-09-09T12:01:46.202Z,100009.56
2023-09-09T12:04:14.883Z,100001.59
2023-09-09T12:06:46.753Z,100003.31
2023-09-09T12:09:14.699Z,100002.75
2023-09-09T12:11:45.084Z,99993.13
2023-09-09T12:14:13.924Z,99993.78
2023-09-09T12:16:41.542Z,99985.25
2023-09-09T12:19:12.882Z,99982.13
2023-09-09T12:21:47.073Z,99979.78
2023-09-09T12:24:13.858Z,99983.50
2023-09-09T12:26:40.734Z,99983.28
2023-09-09T12:29:11.911Z,99976.47
2023-09-09T12:31:59.538Z,99979.38
2023-09-09T12:34:27.593Z,99976.16
2023-09-09T12:36:59.420Z,99966.25
2023-09-09T12:39:27.227Z,99970.63
2023-09-09T12:42:09.877Z,99973.66
2023-09-09T12:44:50.862Z,99960.13
2023-09-09T12:47:24.697Z,99968.97
2023-09-09T12:49:52.223Z,99960.78
2023-09-09T12:52:18.943Z,99966.13
2023-09-09T12:54:45.475Z,99968.91
2023-09-09T12:57:12.048Z,99958.28
2023-09-09T12:59:38.582Z,99962.38
2023-09-09T13:02:05.085Z,99954.81
2023-09-09T13:04:31.712Z,99947.25
2023-09-09T13:06:58.215Z,99950.75
2023-09-09T13:09:25.618Z,99952.31
2023-09-09T13:11:52.215Z,99936.00
2023-09-09T13:14:25.576Z,99956.53
2023-09-09T13:16:53.050Z,99941.81
2023-09-09T13:19:20.785Z,99945.16
2023-09-09T13:21:47.352Z,99947.63
2023-09-09T13:24:13.866Z,99943.94
2023-09-09T13:26:40.363Z,99934.53
2023-09-09T13:29:06.898Z,99930.22
2023-09-09T13:31:33.555Z,99938.44
2023-09-09T13:34:00.214Z,99930.22
2023-09-09T13:36:26.770Z,99919.16
2023-09-09T13:38:53.333Z,99925.59
2023-09-09T13:41:20.389Z,99929.47
2023-09-09T13:43:46.896Z,99928.00
2023-09-09T13:46:14.315Z,99935.22
2023-09-09T13:48:41.385Z,99931.13
2023-09-09T13:51:10.966Z,99927.63
2023-09-09T13:53:37.566Z,99912.00
2023-09-09T13:56:04.279Z,99924.72
2023-09-09T13:58:30.747Z,99927.25
2023-09-09T14:00:58.699Z,99925.84
2023-09-09T14:03:25.556Z,99925.25
2023-09-09T14:05:52.182Z,99918.88
2023-09-09T14:08:18.714Z,99919.50
2023-09-09T14:10:45.198Z,99923.44
2023-09-09T14:13:11.725Z,99916.69
2023-09-09T14:15:38.285Z,99926.50
2023-09-09T14:18:05.090Z,99923.44
2023-09-09T14:20:31.610Z,99921.59
2023-09-09T14:22:58.164Z,99915.06
2023-09-09T14:25:24.711Z,99919.31
2023-09-09T14:27:51.422Z,99910.72
2023-09-09T14:30:18.010Z,99908.88
2023-09-09T14:32:44.586Z,99911.53
2023-09-09T14:35:11.172Z,99906.38
2023-09-09T14:37:37.704Z,99903.31
2023-09-09T14:40:04.767Z,99900.25
2023-09-09T14:42:31.266Z,99898.25
2023-09-09T14:44:57.771Z,99902.91
2023-09-09T14:47:24.330Z,99894.72
2023-09-09T14:49:50.832Z,99895.53
2023-09-09T14:52:17.388Z,99895.72
2023-09-09T14:54:43.968Z,99900.22
2023-09-09T14:57:10.533Z,99903.31
2023-09-09T14:59:37.066Z,99901.22
2023-09-09T15:02:04.009Z,99900.03
2023-09-09T15:04:30.682Z,99884.22
2023-09-09T15:06:57.222Z,99884.28
2023-09-09T15:09:23.681Z,99882.19
2023-09-09T15:11:50.253Z,99903.13
2023-09-09T15:14:16.883Z,99887.75
2023-09-09T15:16:50.591Z,99894.31
2023-09-09T15:19:17.732Z,99886.75
2023-09-09T15:21:44.485Z,99897.81
2023-09-09T15:24:11.148Z,99890.41
2023-09-09T15:26:38.992Z,99895.97
2023-09-09T15:29:06.330Z,99886.75
2023-09-09T15:31:35.061Z,99888.38
2023-09-09T15:34:02.025Z,99893.50
2023-09-09T15:36:28.575Z,99886.75
2023-09-09T15:38:55.017Z,99884.53
2023-09-09T15:41:24.187Z,99884.47
2023-09-09T15:43:51.694Z,99888.38
2023-09-09T15:46:18.446Z,99890.41
2023-09-09T15:48:45.036Z,99885.84
2023-09-09T15:51:11.566Z,99888.75
2023-09-09T15:53:38.030Z,99889.53
2023-09-09T15:56:11.365Z,99886.88
2023-09-09T15:58:38.232Z,99886.66
2023-09-09T16:01:05.144Z,99882.53
2023-09-09T16:03:31.742Z,99878.69
2023-09-09T16:06:05.584Z,99893.59
2023-09-09T16:08:33.162Z,99876.78
2023-09-09T16:11:00.050Z,99889.66
2023-09-09T16:13:27.255Z,99892.31
2023-09-09T16:16:01.113Z,99891.91
2023-09-09T16:18:28.154Z,99889.19
2023-09-09T16:20:55.075Z,99889.19
2023-09-09T16:23:21.614Z,99895.09
2023-09-09T16:25:48.178Z,99892.75
2023-09-09T16:28:14.717Z,99888.84
2023-09-09T16:30:41.522Z,99901.50
2023-09-09T16:33:08.152Z,99899.41
2023-09-09T16:35:34.676Z,99895.84
2023-09-09T16:38:01.138Z,99897.25
2023-09-09T16:40:27.738Z,99885.94
2023-09-09T16:42:54.226Z,99894.84
2023-09-09T16:45:20.839Z,99893.59
2023-09-09T16:47:47.361Z,99891.41
2023-09-09T16:50:14.043Z,99889.22
2023-09-09T16:52:40.570Z,99888.69
2023-09-09T16:55:07.753Z,99898.56
2023-09-09T16:57:34.216Z,99904.19
2023-09-09T17:00:00.698Z,99899.34
2023-09-09T17:02:31.170Z,99904.91
2023-09-09T17:04:58.199Z,99908.84
2023-09-09T17:07:25.421Z,99915.84
2023-09-09T17:09:53.123Z,99920.31
2023-09-09T17:12:20.031Z,99910.53
2023-09-09T17:14:47.022Z,99921.19
2023-09-09T17:17:13.560Z,99921.81
2023-09-09T17:19:40.062Z,99918.72
2023-09-09T17:22:06.598Z,99918.50
2023-09-09T17:24:33.137Z,99908.31
2023-09-09T17:26:59.901Z,99920.31
2023-09-09T17:29:26.565Z,99925.81
2023-09-09T17:31:53.286Z,99907.53
2023-09-09T17:34:20.861Z,99927.75
2023-09-09T17:36:47.368Z,99935.06
2023-09-09T17:39:19.156Z,99934.16
2023-09-09T17:41:45.915Z,99931.38
2023-09-09T17:44:12.988Z,99941.97
2023-09-09T17:46:39.662Z,99940.81
2023-09-09T17:49:07.353Z,99943.47
2023-09-09T17:51:34.356Z,99945.47
2023-09-09T17:54:02.216Z,99953.06
2023-09-09T17:56:28.762Z,99954.25
2023-09-09T17:58:55.442Z,99968.09
2023-09-09T18:01:23.771Z,99957.69
2023-09-09T18:03:52.116Z,99957.88
2023-09-09T18:06:22.996Z,99962.28
2023-09-09T18:08:53.082Z,99968.38
2023-09-09T18:11:21.400Z,99976.47
2023-09-09T18:13:48.853Z,99975.28
2023-09-09T18:16:16.414Z,99971.13
2023-09-09T18:18:43.392Z,99976.88
2023-09-09T18:21:10.225Z,99976.72
2023-09-09T18:23:38.080Z,99980.81
2023-09-09T18:26:04.942Z,99993.13
2023-09-09T18:28:31.969Z,99989.50
2023-09-09T18:31:00.419Z,99991.38
2023-09-09T18:33:28.187Z,99993.00
2023-09-09T18:35:55.208Z,99996.13
2023-09-09T18:38:22.058Z,99999.22
2023-09-09T18:40:51.081Z,99996.53
2023-09-09T18:43:17.729Z,100000.78
2023-09-09T18:45:47.620Z,99996.44
2023-09-09T18:48:16.350Z,99999.69
2023-09-09T18:50:42.903Z,99985.66
2023-09-09T18:53:09.541Z,99993.31
2023-09-09T18:55:36.511Z,99977.06
2023-09-09T18:58:03.141Z,99993.38
2023-09-09T19:00:29.748Z,100005.38
2023-09-09T19:02:57.227Z,99982.72
2023-09-09T19:05:24.330Z,99981.69
2023-09-09T19:07:51.018Z,100002.97
2023-09-09T19:10:17.696Z,99994.69
2023-09-09T19:12:44.459Z,99990.50
2023-09-09T19:15:11.331Z,99999.22
2023-09-09T19:17:38.036Z,100003.41
2023-09-09T19:20:05.243Z,100002.22
2023-09-09T19:22:31.842Z,99998.53
2023-09-09T19:24:58.460Z,99999.66
2023-09-09T19:27:26.061Z,100004.22
2023-09-09T19:29:53.418Z,99997.91
2023-09-09T19:32:20.149Z,99997.00
2023-09-09T19:34:47.817Z,99999.78
2023-09-09T19:37:14.331Z,100003.66
2023-09-09T19:39:40.809Z,100003.44
2023-09-09T19:42:07.409Z,100004.25
2023-09-09T19:44:33.925Z,99999.56
2023-09-09T19:47:00.821Z,99994.88
2023-09-09T19:49:27.468Z,100003.78
2023-09-09T19:51:54.086Z,100007.41
2023-09-09T19:54:20.717Z,100009.22
2023-09-09T19:56:49.739Z,99995.44
2023-09-09T19:59:17.858Z,100006.78
2023-09-09T20:01:44.405Z,99997.97
2023-09-09T20:04:11.010Z,99996.59
2023-09-09T20:06:37.735Z,99998.41
2023-09-09T20:09:04.928Z,99987.91
2023-09-09T20:11:31.501Z,99995.66
2023-09-09T20:13:58.834Z,99996.25
2023-09-09T20:16:25.600Z,100003.41
2023-09-09T20:18:52.151Z,100001.78
2023-09-09T20:21:18.661Z,99992.09
2023-09-09T20:23:45.190Z,100011.16
2023-09-09T20:26:11.692Z,100015.03
2023-09-09T20:28:38.487Z,99998.50
2023-09-09T20:31:05.414Z,100007.75
2023-09-09T20:33:31.902Z,100008.59
2023-09-09T20:35:58.410Z,100018.28
2023-09-09T20:38:24.900Z,100020.63
2023-09-09T20:40:51.559Z,100029.50
2023-09-09T20:43:19.208Z,100026.28
2023-09-09T20:45:45.695Z,100019.94
2023-09-09T20:48:15.268Z,100015.81
2023-09-09T20:50:41.945Z,100023.97
2023-09-09T20:53:08.397Z,100019.28
2023-09-09T20:55:37.131Z,100029.06
2023-09-09T20:58:03.851Z,100023.00
2023-09-09T21:00:30.728Z,100024.53
2023-09-09T21:02:57.281Z,100030.03
2023-09-09T21:05:23.845Z,100030.88
2023-09-09T21:07:51.071Z,100022.56
2023-09-09T21:10:18.774Z,100019.81
2023-09-09T21:12:47.504Z,100012.66
2023-09-09T21:15:15.117Z,100020.53
2023-09-09T21:17:42.729Z,100020.94
2023-09-09T21:20:10.511Z,100024.09
2023-09-09T21:22:37.426Z,100031.97
2023-09-09T21:25:04.798Z,100016.06
2023-09-09T21:27:31.391Z,100017.72
2023-09-09T21:29:57.864Z,100021.16
2023-09-09T21:32:24.820Z,100024.75
2023-09-09T21:34:52.240Z,100023.66
2023-09-09T21:37:19.767Z,100020.31
2023-09-09T21:39:46.571Z,100020.59
2023-09-09T21:42:14.576Z,100017.53
2023-09-09T21:44:41.793Z,100019.09
2023-09-09T21:47:08.341Z,100017.00
2023-09-09T21:49:35.037Z,100016.31
2023-09-09T21:52:03.606Z,100019.88
2023-09-09T21:54:30.351Z,100020.88
2023-09-09T21:56:56.862Z,100021.84
2023-09-09T21:59:23.487Z,100025.13
2023-09-09T22:01:50.009Z,100022.09
2023-09-09T22:04:16.572Z,100008.59
2023-09-09T22:06:43.165Z,100024.72
2023-09-09T22:09:09.680Z,100017.84
2023-09-09T22:11:36.248Z,100013.69
2023-09-09T22:14:02.785Z,100007.59
2023-09-09T22:16:29.330Z,100016.06
2023-09-09T22:18:55.881Z,100009.41
2023-09-09T22:21:22.582Z,100017.69
2023-09-09T22:23:49.186Z,100013.84
2023-09-09T22:26:30.821Z,100008.28
2023-09-09T22:28:58.164Z,100012.97
2023-09-09T22:31:25.815Z,100002.91
2023-09-09T22:33:53.401Z,100013.66
2023-09-09T22:36:20.777Z,100011.03
2023-09-09T22:38:47.514Z,100014.19
2023-09-09T22:41:14.448Z,100010.88
2023-09-09T22:43:41.100Z,100011.84
2023-09-09T22:46:09.627Z,100016.38
2023-09-09T22:48:37.133Z,100012.09
2023-09-09T22:51:05.620Z,100014.88
2023-09-09T22:53:33.103Z,100009.63
2023-09-09T22:56:02.223Z,100016.38
2023-09-09T22:58:28.838Z,100004.78
2023-09-09T23:00:57.741Z,100008.91
2023-09-09T23:03:27.163Z,99999.38
2023-09-09T23:05:53.727Z,100019.78
2023-09-09T23:08:20.306Z,100020.78
2023-09-09T23:10:46.936Z,100016.34
2023-09-09T23:13:14.077Z,100027.81
2023-09-09T23:15:41.081Z,100009.16
2023-09-09T23:18:07.996Z,100006.25
2023-09-09T23:20:35.089Z,100014.53
2023-09-09T23:23:01.776Z,100024.88
2023-09-09T23:25:28.460Z,100022.25
2023-09-09T23:27:55.127Z,100023.47
2023-09-09T23:30:21.764Z,100015.88
2023-09-09T23:32:48.379Z,100015.44
2023-09-09T23:35:15.085Z,100011.44
2023-09-09T23:37:42.125Z,100012.28
2023-09-09T23:40:09.908Z,100023.44
2023-09-09T23:42:37.140Z,100021.19
2023-09-09T23:45:04.012Z,100015.25
2023-09-09T23:47:30.523Z,100028.34
2023-09-09T23:49:57.089Z,100013.16
2023-09-09T23:52:23.896Z,100008.44
2023-09-09T23:54:50.399Z,100003.31
2023-09-09T23:57:16.964Z,100016.72
2023-09-09T23:59:43.580Z,100020.31
